createdAt,value
2016-12-30T00:01:00.138Z,1034.64
2016-12-30T00:02:10.470Z,1034.62
2016-12-30T00:03:21.206Z,1034.57
2016-12-30T00:04:31.949Z,1034.56
2016-12-30T00:05:42.675Z,1034.49
2016-12-30T00:06:53.014Z,1034.53
2016-12-30T00:08:03.770Z,1034.56
2016-12-30T00:09:14.493Z,1034.55
2016-12-30T00:10:24.822Z,1034.51
2016-12-30T00:11:35.542Z,1034.53
2016-12-30T00:12:45.088Z,1034.51
2016-12-30T00:13:55.809Z,1034.52
2016-12-30T00:15:06.570Z,1034.47
2016-12-30T00:16:16.496Z,1034.5
2016-12-30T00:17:26.823Z,1034.49
2016-12-30T00:18:37.222Z,1034.52
2016-12-30T00:19:47.565Z,1034.49
2016-12-30T00:20:58.285Z,1034.54
2016-12-30T00:22:08.614Z,1034.56
2016-12-30T00:23:18.944Z,1034.59
2016-12-30T00:24:29.286Z,1034.59
2016-12-30T00:25:39.613Z,1034.65
2016-12-30T00:26:49.552Z,1034.63
2016-12-30T00:28:00.301Z,1034.61
2016-12-30T00:29:10.634Z,1034.6
2016-12-30T00:30:21.031Z,1034.63
2016-12-30T00:31:31.754Z,1034.61
2016-12-30T00:32:42.480Z,1034.65
2016-12-30T00:33:53.210Z,1034.63
2016-12-30T00:35:03.949Z,1034.6
2016-12-30T00:36:14.688Z,1034.62
2016-12-30T00:37:25.425Z,1034.62
2016-12-30T00:38:36.169Z,1034.62
2016-12-30T00:39:46.893Z,1034.63
2016-12-30T00:40:57.683Z,1034.64
2016-12-30T00:42:08.003Z,1034.56
2016-12-30T00:43:17.945Z,1034.59
2016-12-30T00:44:28.268Z,1034.6
2016-12-30T00:45:38.610Z,1034.55
2016-12-30T00:46:49.343Z,1034.56
2016-12-30T00:48:00.073Z,1034.6
2016-12-30T00:49:09.618Z,1034.59
2016-12-30T00:50:20.342Z,1034.58
2016-12-30T00:51:31.071Z,1034.57
2016-12-30T00:52:41.421Z,1034.57
2016-12-30T00:53:51.741Z,1034.56
2016-12-30T00:55:01.689Z,1034.57
2016-12-30T00:56:12.016Z,1034.55
2016-12-30T00:57:22.345Z,1034.54
2016-12-30T00:58:33.069Z,1034.53
2016-12-30T00:59:43.792Z,1034.51
2016-12-30T01:00:54.118Z,1034.55
2016-12-30T01:02:04.060Z,1034.54
2016-12-30T01:03:14.409Z,1034.55
2016-12-30T01:04:24.739Z,1034.53
2016-12-30T01:05:35.074Z,1034.51
2016-12-30T01:06:45.426Z,1034.56
2016-12-30T01:07:55.756Z,1034.55
2016-12-30T01:09:06.198Z,1034.53
2016-12-30T01:10:16.540Z,1034.51
2016-12-30T01:11:27.269Z,1034.54
2016-12-30T01:12:37.992Z,1034.48
2016-12-30T01:13:48.722Z,1034.53
2016-12-30T01:14:59.458Z,1034.46
2016-12-30T01:16:10.186Z,1034.43
2016-12-30T01:17:20.927Z,1034.45
2016-12-30T01:18:30.863Z,1034.41
2016-12-30T01:19:41.186Z,1034.42
2016-12-30T01:20:50.748Z,1034.42
2016-12-30T01:22:01.484Z,1034.4
2016-12-30T01:23:12.356Z,1034.41
2016-12-30T01:24:23.093Z,1034.42
2016-12-30T01:25:33.819Z,1034.45
2016-12-30T01:26:44.146Z,1034.45
2016-12-30T01:27:54.875Z,1034.45
2016-12-30T01:29:05.592Z,1034.44
2016-12-30T01:30:16.303Z,1034.4
2016-12-30T01:31:27.026Z,1034.39
2016-12-30T01:32:37.769Z,1034.4
2016-12-30T01:33:48.086Z,1034.42
2016-12-30T01:34:58.421Z,1034.38
2016-12-30T01:36:08.357Z,1034.36
2016-12-30T01:37:18.684Z,1034.35
2016-12-30T01:38:29.413Z,1034.3
2016-12-30T01:39:40.134Z,1034.28
2016-12-30T01:40:50.857Z,1034.29
2016-12-30T01:42:01.195Z,1034.25
2016-12-30T01:43:11.908Z,1034.25
2016-12-30T01:44:22.239Z,1034.18
2016-12-30T01:45:32.584Z,1034.17
2016-12-30T01:46:42.507Z,1034.17
2016-12-30T01:47:53.221Z,1034.08
2016-12-30T01:49:03.164Z,1034.1
2016-12-30T01:50:13.499Z,1034.15
2016-12-30T01:51:24.254Z,1034.13
2016-12-30T01:52:35.698Z,1034.14
2016-12-30T01:53:46.421Z,1034.09
2016-12-30T01:54:56.757Z,1034.09
2016-12-30T01:56:07.083Z,1034.13
2016-12-30T01:57:17.839Z,1034.09
2016-12-30T01:58:28.562Z,1034.1
2016-12-30T01:59:38.892Z,1034.1
2016-12-30T02:00:48.824Z,1034.11
2016-12-30T02:01:58.766Z,1034.09
2016-12-30T02:03:09.486Z,1034.12
2016-12-30T02:04:20.209Z,1034.14
2016-12-30T02:05:30.145Z,1034.14
2016-12-30T02:06:40.472Z,1034.16
2016-12-30T02:07:51.191Z,1034.11
2016-12-30T02:09:01.515Z,1034.08
2016-12-30T02:10:11.851Z,1034.07
2016-12-30T02:11:22.181Z,1034.03
2016-12-30T02:12:32.901Z,1034.02
2016-12-30T02:13:43.624Z,1034.02
2016-12-30T02:14:54.344Z,1033.95
2016-12-30T02:16:04.692Z,1033.99
2016-12-30T02:17:14.625Z,1033.91
2016-12-30T02:18:25.349Z,1033.87
2016-12-30T02:19:35.668Z,1033.87
2016-12-30T02:20:46.395Z,1033.86
2016-12-30T02:21:57.116Z,1033.82
2016-12-30T02:23:07.847Z,1033.83
2016-12-30T02:24:18.580Z,1033.79
2016-12-30T02:25:28.522Z,1033.83
2016-12-30T02:26:39.240Z,1033.78
2016-12-30T02:27:49.962Z,1033.73
2016-12-30T02:29:00.679Z,1033.78
2016-12-30T02:30:11.418Z,1033.73
2016-12-30T02:31:22.144Z,1033.77
2016-12-30T02:32:32.864Z,1033.75
2016-12-30T02:33:43.585Z,1033.76
2016-12-30T02:34:54.309Z,1033.79
2016-12-30T02:36:04.236Z,1033.73
2016-12-30T02:37:14.557Z,1033.77
2016-12-30T02:38:24.889Z,1033.72
2016-12-30T02:39:35.606Z,1033.78
2016-12-30T02:40:45.965Z,1033.68
2016-12-30T02:41:56.685Z,1033.61
2016-12-30T02:43:07.411Z,1033.63
2016-12-30T02:44:17.728Z,1033.57
2016-12-30T02:45:28.451Z,1033.59
2016-12-30T02:46:39.212Z,1033.6
2016-12-30T02:47:49.142Z,1033.58
2016-12-30T02:48:59.904Z,1033.59
2016-12-30T02:50:10.624Z,1033.66
2016-12-30T02:51:20.966Z,1033.68
2016-12-30T02:52:30.537Z,1033.65
2016-12-30T02:53:40.866Z,1033.65
2016-12-30T02:54:51.583Z,1033.62
2016-12-30T02:56:01.925Z,1033.59
2016-12-30T02:57:12.247Z,1033.61
2016-12-30T02:58:22.582Z,1033.55
2016-12-30T02:59:32.911Z,1033.59
2016-12-30T03:00:43.235Z,1033.58
2016-12-30T03:01:53.961Z,1033.55
2016-12-30T03:03:04.690Z,1033.56
2016-12-30T03:04:15.014Z,1033.56
2016-12-30T03:05:25.730Z,1033.54
2016-12-30T03:06:36.047Z,1033.5
2016-12-30T03:07:45.996Z,1033.51
2016-12-30T03:08:56.716Z,1033.48
2016-12-30T03:10:07.081Z,1033.51
2016-12-30T03:11:17.816Z,1033.48
2016-12-30T03:12:28.139Z,1033.46
2016-12-30T03:13:38.856Z,1033.46
2016-12-30T03:14:49.564Z,1033.49
2016-12-30T03:15:59.881Z,1033.51
2016-12-30T03:17:10.604Z,1033.49
2016-12-30T03:18:21.330Z,1033.49
2016-12-30T03:19:32.056Z,1033.52
2016-12-30T03:20:42.783Z,1033.5
2016-12-30T03:21:53.113Z,1033.51
2016-12-30T03:23:03.032Z,1033.55
2016-12-30T03:24:13.746Z,1033.53
2016-12-30T03:25:24.469Z,1033.51
2016-12-30T03:26:34.799Z,1033.51
2016-12-30T03:27:45.126Z,1033.51
2016-12-30T03:28:55.864Z,1033.49
2016-12-30T03:30:06.585Z,1033.48
2016-12-30T03:31:16.530Z,1033.44
2016-12-30T03:32:27.250Z,1033.45
2016-12-30T03:33:37.589Z,1033.44
2016-12-30T03:34:47.906Z,1033.44
2016-12-30T03:35:58.622Z,1033.45
2016-12-30T03:37:09.346Z,1033.43
2016-12-30T03:38:20.060Z,1033.44
2016-12-30T03:39:30.812Z,1033.44
2016-12-30T03:40:41.144Z,1033.41
2016-12-30T03:41:51.460Z,1033.41
2016-12-30T03:43:01.784Z,1033.42
2016-12-30T03:44:12.104Z,1033.41
2016-12-30T03:45:21.637Z,1033.43
2016-12-30T03:46:31.960Z,1033.43
2016-12-30T03:47:42.286Z,1033.46
2016-12-30T03:48:52.226Z,1033.45
2016-12-30T03:50:02.952Z,1033.49
2016-12-30T03:51:13.707Z,1033.5
2016-12-30T03:52:24.430Z,1033.49
2016-12-30T03:53:34.751Z,1033.52
2016-12-30T03:54:45.067Z,1033.45
2016-12-30T03:55:55.790Z,1033.44
2016-12-30T03:57:06.504Z,1033.38
2016-12-30T03:58:17.572Z,1033.38
2016-12-30T03:59:27.951Z,1033.36
2016-12-30T04:00:38.699Z,1033.31
2016-12-30T04:01:49.419Z,1033.34
2016-12-30T04:02:59.736Z,1033.33
2016-12-30T04:04:10.056Z,1033.33
2016-12-30T04:05:19.992Z,1033.32
2016-12-30T04:06:30.706Z,1033.29
2016-12-30T04:07:40.635Z,1033.27
2016-12-30T04:08:51.349Z,1033.23
2016-12-30T04:10:01.666Z,1033.21
2016-12-30T04:11:12.379Z,1033.23
2016-12-30T04:12:23.101Z,1033.2
2016-12-30T04:13:33.834Z,1033.25
2016-12-30T04:14:44.565Z,1033.26
2016-12-30T04:15:54.876Z,1033.26
2016-12-30T04:17:05.598Z,1033.24
2016-12-30T04:18:16.306Z,1033.27
2016-12-30T04:19:27.035Z,1033.26
2016-12-30T04:20:37.384Z,1033.23
2016-12-30T04:21:48.109Z,1033.22
2016-12-30T04:22:58.844Z,1033.2
2016-12-30T04:24:09.682Z,1033.22
2016-12-30T04:25:20.015Z,1033.22
2016-12-30T04:26:30.345Z,1033.22
2016-12-30T04:27:41.071Z,1033.2
2016-12-30T04:28:51.787Z,1033.21
2016-12-30T04:30:02.514Z,1033.22
2016-12-30T04:31:13.275Z,1033.23
2016-12-30T04:32:23.600Z,1033.23
2016-12-30T04:33:34.332Z,1033.22
2016-12-30T04:34:45.055Z,1033.21
2016-12-30T04:35:55.785Z,1033.2
2016-12-30T04:37:06.111Z,1033.18
2016-12-30T04:38:16.869Z,1033.21
2016-12-30T04:39:27.188Z,1033.22
2016-12-30T04:40:37.141Z,1033.23
2016-12-30T04:41:47.465Z,1033.24
2016-12-30T04:42:57.397Z,1033.25
2016-12-30T04:44:07.724Z,1033.2
2016-12-30T04:45:17.260Z,1033.19
2016-12-30T04:46:27.977Z,1033.14
2016-12-30T04:47:38.595Z,1033.13
2016-12-30T04:48:49.317Z,1033.14
2016-12-30T04:49:59.637Z,1033.11
2016-12-30T04:51:09.961Z,1033.11
2016-12-30T04:52:20.306Z,1033.09
2016-12-30T04:53:30.229Z,1033.12
2016-12-30T04:54:40.933Z,1033.1
2016-12-30T04:55:51.651Z,1033.07
2016-12-30T04:57:02.377Z,1033.12
2016-12-30T04:58:12.697Z,1033.09
2016-12-30T04:59:22.623Z,1033.04
2016-12-30T05:00:33.388Z,1033.02
2016-12-30T05:01:44.105Z,1033.07
2016-12-30T05:02:54.851Z,1033.03
2016-12-30T05:04:05.577Z,1033.06
2016-12-30T05:05:16.300Z,1033.1
2016-12-30T05:06:26.624Z,1033.07
2016-12-30T05:07:37.340Z,1033.06
2016-12-30T05:08:47.660Z,1033.11
2016-12-30T05:09:57.583Z,1033.1
2016-12-30T05:11:08.304Z,1033.11
2016-12-30T05:12:19.014Z,1033.13
2016-12-30T05:13:29.738Z,1033.14
2016-12-30T05:14:39.667Z,1033.17
2016-12-30T05:15:50.396Z,1033.17
2016-12-30T05:17:01.136Z,1033.16
2016-12-30T05:18:11.855Z,1033.16
2016-12-30T05:19:22.576Z,1033.14
2016-12-30T05:20:33.295Z,1033.16
2016-12-30T05:21:44.028Z,1033.09
2016-12-30T05:22:54.751Z,1033.03
2016-12-30T05:24:05.074Z,1033.06
2016-12-30T05:25:15.791Z,1033.02
2016-12-30T05:26:26.518Z,1033.03
2016-12-30T05:27:37.235Z,1033.05
2016-12-30T05:28:47.555Z,1033.06
2016-12-30T05:29:58.268Z,1033.05
2016-12-30T05:31:08.985Z,1033.09
2016-12-30T05:32:19.711Z,1033.07
2016-12-30T05:33:30.032Z,1033.05
2016-12-30T05:34:40.368Z,1033.04
2016-12-30T05:35:50.693Z,1032.99
2016-12-30T05:37:00.223Z,1032.92
2016-12-30T05:38:10.934Z,1032.92
2016-12-30T05:39:21.264Z,1032.91
2016-12-30T05:40:31.603Z,1032.99
2016-12-30T05:41:41.941Z,1032.92
2016-12-30T05:42:52.668Z,1032.97
2016-12-30T05:44:01.824Z,1032.98
2016-12-30T05:45:12.543Z,1032.99
2016-12-30T05:46:23.271Z,1032.97
2016-12-30T05:47:33.593Z,1032.96
2016-12-30T05:48:43.529Z,1032.94
2016-12-30T05:49:54.243Z,1032.96
2016-12-30T05:51:04.563Z,1032.97
2016-12-30T05:52:14.896Z,1032.95
2016-12-30T05:53:25.613Z,1032.93
2016-12-30T05:54:35.940Z,1032.92
2016-12-30T05:55:46.659Z,1032.92
2016-12-30T05:56:57.379Z,1032.91
2016-12-30T05:58:08.166Z,1032.85
2016-12-30T05:59:18.109Z,1032.8
2016-12-30T06:00:28.839Z,1032.82
2016-12-30T06:01:38.784Z,1032.79
2016-12-30T06:02:48.326Z,1032.8
2016-12-30T06:03:58.656Z,1032.83
2016-12-30T06:05:08.989Z,1032.84
2016-12-30T06:06:19.321Z,1032.82
2016-12-30T06:07:29.661Z,1032.78
2016-12-30T06:08:40.397Z,1032.77
2016-12-30T06:09:50.713Z,1032.77
2016-12-30T06:11:01.047Z,1032.79
2016-12-30T06:12:10.977Z,1032.8
2016-12-30T06:13:21.299Z,1032.77
2016-12-30T06:14:32.032Z,1032.8
2016-12-30T06:15:42.762Z,1032.8
2016-12-30T06:16:53.485Z,1032.8
2016-12-30T06:18:03.424Z,1032.8
2016-12-30T06:19:13.754Z,1032.78
2016-12-30T06:20:24.084Z,1032.77
2016-12-30T06:21:34.416Z,1032.75
2016-12-30T06:22:44.346Z,1032.75
2016-12-30T06:23:54.663Z,1032.79
2016-12-30T06:25:04.983Z,1032.78
2016-12-30T06:26:15.703Z,1032.83
2016-12-30T06:27:26.422Z,1032.83
2016-12-30T06:28:37.137Z,1032.84
2016-12-30T06:29:47.062Z,1032.8
2016-12-30T06:30:57.443Z,1032.84
2016-12-30T06:32:07.770Z,1032.83
2016-12-30T06:33:18.112Z,1032.83
2016-12-30T06:34:28.436Z,1032.83
2016-12-30T06:35:38.772Z,1032.86
2016-12-30T06:36:49.095Z,1032.87
2016-12-30T06:37:59.437Z,1032.88
2016-12-30T06:39:09.795Z,1032.85
2016-12-30T06:40:19.770Z,1032.86
2016-12-30T06:41:30.109Z,1032.8
2016-12-30T06:42:40.589Z,1032.79
2016-12-30T06:43:51.307Z,1032.81
2016-12-30T06:45:00.849Z,1032.75
2016-12-30T06:46:10.781Z,1032.77
2016-12-30T06:47:21.508Z,1032.75
2016-12-30T06:48:31.463Z,1032.72
2016-12-30T06:49:41.783Z,1032.76
2016-12-30T06:50:52.497Z,1032.71
2016-12-30T06:52:02.429Z,1032.73
2016-12-30T06:53:12.369Z,1032.79
2016-12-30T06:54:22.706Z,1032.75
2016-12-30T06:55:33.034Z,1032.79
2016-12-30T06:56:43.361Z,1032.79
2016-12-30T06:57:54.106Z,1032.74
2016-12-30T06:59:04.432Z,1032.74
2016-12-30T07:00:14.756Z,1032.67
2016-12-30T07:01:24.689Z,1032.74
2016-12-30T07:02:34.648Z,1032.7
2016-12-30T07:03:44.990Z,1032.73
2016-12-30T07:04:55.325Z,1032.71
2016-12-30T07:06:06.052Z,1032.71
2016-12-30T07:07:16.366Z,1032.72
2016-12-30T07:08:26.695Z,1032.68
2016-12-30T07:09:37.418Z,1032.7
2016-12-30T07:10:47.754Z,1032.65
2016-12-30T07:11:58.080Z,1032.62
2016-12-30T07:13:08.417Z,1032.64
2016-12-30T07:14:19.143Z,1032.64
2016-12-30T07:15:29.463Z,1032.65
2016-12-30T07:16:40.183Z,1032.66
2016-12-30T07:17:50.113Z,1032.73
2016-12-30T07:19:00.849Z,1032.67
2016-12-30T07:20:11.575Z,1032.7
2016-12-30T07:21:22.305Z,1032.67
2016-12-30T07:22:32.634Z,1032.67
2016-12-30T07:23:42.958Z,1032.69
2016-12-30T07:24:53.671Z,1032.63
2016-12-30T07:26:04.132Z,1032.64
2016-12-30T07:27:14.916Z,1032.58
2016-12-30T07:28:24.458Z,1032.6
2016-12-30T07:29:34.404Z,1032.59
2016-12-30T07:30:45.121Z,1032.56
2016-12-30T07:31:55.454Z,1032.61
2016-12-30T07:33:05.780Z,1032.62
2016-12-30T07:34:16.506Z,1032.64
2016-12-30T07:35:26.833Z,1032.62
2016-12-30T07:36:37.553Z,1032.62
2016-12-30T07:37:48.285Z,1032.65
2016-12-30T07:38:59.005Z,1032.64
2016-12-30T07:40:09.380Z,1032.65
2016-12-30T07:41:20.107Z,1032.64
2016-12-30T07:42:30.465Z,1032.66
2016-12-30T07:43:40.791Z,1032.65
2016-12-30T07:44:50.724Z,1032.68
2016-12-30T07:46:01.051Z,1032.72
2016-12-30T07:47:11.777Z,1032.7
2016-12-30T07:48:22.519Z,1032.74
2016-12-30T07:49:33.255Z,1032.74
2016-12-30T07:50:43.188Z,1032.75
2016-12-30T07:51:53.517Z,1032.75
2016-12-30T07:53:04.237Z,1032.78
2016-12-30T07:54:14.980Z,1032.79
2016-12-30T07:55:25.713Z,1032.82
2016-12-30T07:56:36.090Z,1032.78
2016-12-30T07:57:46.413Z,1032.84
2016-12-30T07:58:56.343Z,1032.85
2016-12-30T08:00:06.679Z,1032.85
2016-12-30T08:01:17.414Z,1032.86
2016-12-30T08:02:28.141Z,1032.85
2016-12-30T08:03:38.874Z,1032.86
2016-12-30T08:04:48.804Z,1032.91
2016-12-30T08:05:59.150Z,1032.88
2016-12-30T08:07:09.886Z,1032.9
2016-12-30T08:08:19.833Z,1032.89
2016-12-30T08:09:30.174Z,1032.93
2016-12-30T08:10:40.903Z,1032.92
2016-12-30T08:11:51.648Z,1032.9
2016-12-30T08:13:02.397Z,1032.91
2016-12-30T08:14:12.745Z,1032.92
2016-12-30T08:15:23.463Z,1032.87
2016-12-30T08:16:34.199Z,1032.88
2016-12-30T08:17:44.528Z,1032.87
2016-12-30T08:18:55.271Z,1032.86
2016-12-30T08:20:06.007Z,1032.91
2016-12-30T08:21:16.737Z,1032.91
2016-12-30T08:22:27.063Z,1032.93
2016-12-30T08:23:37.786Z,1032.9
2016-12-30T08:24:48.509Z,1032.95
2016-12-30T08:25:59.236Z,1032.95
2016-12-30T08:27:09.953Z,1032.94
2016-12-30T08:28:20.331Z,1032.97
2016-12-30T08:29:31.088Z,1032.96
2016-12-30T08:30:41.428Z,1032.95
2016-12-30T08:31:51.453Z,1032.93
2016-12-30T08:33:01.789Z,1032.96
2016-12-30T08:34:12.119Z,1032.97
2016-12-30T08:35:22.449Z,1032.93
2016-12-30T08:36:32.391Z,1032.97
2016-12-30T08:37:43.122Z,1032.93
2016-12-30T08:38:53.467Z,1032.95
2016-12-30T08:40:04.199Z,1032.99
2016-12-30T08:41:14.928Z,1033.01
2016-12-30T08:42:25.640Z,1033.01
2016-12-30T08:43:36.394Z,1032.97
2016-12-30T08:44:47.124Z,1033.02
2016-12-30T08:45:57.479Z,1032.93
2016-12-30T08:47:08.202Z,1032.92
2016-12-30T08:48:18.938Z,1032.93
2016-12-30T08:49:29.712Z,1032.9
2016-12-30T08:50:39.655Z,1032.85
2016-12-30T08:51:50.374Z,1032.78
2016-12-30T08:53:01.120Z,1032.75
2016-12-30T08:54:11.834Z,1032.76
2016-12-30T08:55:22.179Z,1032.75
2016-12-30T08:56:32.899Z,1032.76
2016-12-30T08:57:43.616Z,1032.79
2016-12-30T08:58:54.352Z,1032.8
2016-12-30T09:00:05.066Z,1032.86
2016-12-30T09:01:15.427Z,1032.84
2016-12-30T09:02:26.156Z,1032.85
2016-12-30T09:03:36.885Z,1032.84
2016-12-30T09:04:46.818Z,1032.83
2016-12-30T09:05:57.533Z,1032.81
2016-12-30T09:07:08.268Z,1032.81
2016-12-30T09:08:18.595Z,1032.79
2016-12-30T09:09:29.328Z,1032.89
2016-12-30T09:10:39.660Z,1032.82
2016-12-30T09:11:49.593Z,1032.84
2016-12-30T09:12:59.913Z,1032.83
2016-12-30T09:14:10.649Z,1032.8
2016-12-30T09:15:20.988Z,1032.77
2016-12-30T09:16:31.705Z,1032.78
2016-12-30T09:17:42.437Z,1032.81
2016-12-30T09:18:52.762Z,1032.8
2016-12-30T09:20:03.500Z,1032.83
2016-12-30T09:21:13.830Z,1032.87
2016-12-30T09:22:24.166Z,1032.87
2016-12-30T09:23:34.883Z,1032.82
2016-12-30T09:24:45.209Z,1032.83
2016-12-30T09:25:55.542Z,1032.84
2016-12-30T09:27:05.881Z,1032.78
2016-12-30T09:28:16.642Z,1032.72
2016-12-30T09:29:26.182Z,1032.68
2016-12-30T09:30:36.499Z,1032.66
2016-12-30T09:31:47.266Z,1032.67
2016-12-30T09:32:57.994Z,1032.57
2016-12-30T09:34:08.729Z,1032.56
2016-12-30T09:35:19.069Z,1032.54
2016-12-30T09:36:29.404Z,1032.52
2016-12-30T09:37:40.137Z,1032.55
2016-12-30T09:38:50.476Z,1032.54
2016-12-30T09:40:00.806Z,1032.49
2016-12-30T09:41:11.597Z,1032.45
2016-12-30T09:42:22.329Z,1032.48
2016-12-30T09:43:33.087Z,1032.46
2016-12-30T09:44:43.827Z,1032.45
2016-12-30T09:45:53.766Z,1032.41
2016-12-30T09:47:04.499Z,1032.34
2016-12-30T09:48:15.238Z,1032.36
2016-12-30T09:49:25.571Z,1032.37
2016-12-30T09:50:36.304Z,1032.36
2016-12-30T09:51:46.784Z,1032.37
2016-12-30T09:52:57.512Z,1032.37
2016-12-30T09:54:07.852Z,1032.33
2016-12-30T09:55:18.620Z,1032.36
2016-12-30T09:56:28.989Z,1032.31
2016-12-30T09:57:39.725Z,1032.3
2016-12-30T09:58:50.476Z,1032.26
2016-12-30T10:00:01.203Z,1032.2
2016-12-30T10:01:11.932Z,1032.17
2016-12-30T10:02:22.663Z,1032.09
2016-12-30T10:03:32.994Z,1032.1
2016-12-30T10:04:42.931Z,1032.12
2016-12-30T10:05:53.269Z,1032.12
2016-12-30T10:07:04.003Z,1032.19
2016-12-30T10:08:14.364Z,1032.22
2016-12-30T10:09:25.129Z,1032.2
2016-12-30T10:10:35.475Z,1032.2
2016-12-30T10:11:45.801Z,1032.19
2016-12-30T10:12:56.534Z,1032.13
2016-12-30T10:14:07.290Z,1032.15
2016-12-30T10:15:18.019Z,1032.11
2016-12-30T10:16:27.955Z,1032.09
2016-12-30T10:17:38.691Z,1032.05
2016-12-30T10:18:49.446Z,1032.03
2016-12-30T10:20:00.170Z,1032.08
2016-12-30T10:21:10.915Z,1032.05
2016-12-30T10:22:21.644Z,1032.08
2016-12-30T10:23:32.377Z,1032.09
2016-12-30T10:24:41.515Z,1032.08
2016-12-30T10:25:51.855Z,1032.06
2016-12-30T10:27:02.189Z,1032.03
2016-12-30T10:28:12.933Z,1032.04
2016-12-30T10:29:23.648Z,1032.04
2016-12-30T10:30:33.988Z,1032.08
2016-12-30T10:31:44.332Z,1032.06
2016-12-30T10:32:54.682Z,1032.07
2016-12-30T10:34:05.434Z,1032.08
2016-12-30T10:35:15.769Z,1032.01
2016-12-30T10:36:26.486Z,1031.99
2016-12-30T10:37:36.835Z,1032.01
2016-12-30T10:38:47.574Z,1031.99
2016-12-30T10:39:57.914Z,1032.02
2016-12-30T10:41:08.639Z,1032.02
2016-12-30T10:42:18.579Z,1032.03
2016-12-30T10:43:28.925Z,1031.99
2016-12-30T10:44:39.295Z,1031.98
2016-12-30T10:45:50.064Z,1031.95
2016-12-30T10:47:00.048Z,1031.93
2016-12-30T10:48:10.371Z,1031.85
2016-12-30T10:49:21.111Z,1031.81
2016-12-30T10:50:31.043Z,1031.82
2016-12-30T10:51:40.573Z,1031.76
2016-12-30T10:52:50.908Z,1031.75
2016-12-30T10:54:01.658Z,1031.75
2016-12-30T10:55:11.997Z,1031.76
2016-12-30T10:56:22.329Z,1031.77
2016-12-30T10:57:32.659Z,1031.83
2016-12-30T10:58:43.444Z,1031.82
2016-12-30T10:59:53.776Z,1031.82
2016-12-30T11:01:04.115Z,1031.76
2016-12-30T11:02:14.985Z,1031.76
2016-12-30T11:03:25.708Z,1031.76
2016-12-30T11:04:35.251Z,1031.75
2016-12-30T11:05:45.187Z,1031.76
2016-12-30T11:06:55.895Z,1031.73
2016-12-30T11:08:05.840Z,1031.75
2016-12-30T11:09:16.573Z,1031.72
2016-12-30T11:10:27.370Z,1031.72
2016-12-30T11:11:38.093Z,1031.7
2016-12-30T11:12:48.428Z,1031.65
2016-12-30T11:13:59.171Z,1031.66
2016-12-30T11:15:09.513Z,1031.69
2016-12-30T11:16:19.858Z,1031.68
2016-12-30T11:17:30.208Z,1031.73
2016-12-30T11:18:40.928Z,1031.78
2016-12-30T11:19:51.667Z,1031.78
2016-12-30T11:21:02.019Z,1031.74
2016-12-30T11:22:12.370Z,1031.75
2016-12-30T11:23:21.524Z,1031.69
2016-12-30T11:24:31.851Z,1031.65
2016-12-30T11:25:42.191Z,1031.64
2016-12-30T11:26:52.524Z,1031.63
2016-12-30T11:28:02.961Z,1031.66
2016-12-30T11:29:13.307Z,1031.68
2016-12-30T11:30:24.039Z,1031.59
2016-12-30T11:31:34.369Z,1031.63
2016-12-30T11:32:44.718Z,1031.67
2016-12-30T11:33:55.048Z,1031.72
2016-12-30T11:35:05.003Z,1031.73
2016-12-30T11:36:15.738Z,1031.74
2016-12-30T11:37:26.465Z,1031.76
2016-12-30T11:38:37.204Z,1031.75
2016-12-30T11:39:47.946Z,1031.71
2016-12-30T11:40:58.282Z,1031.67
2016-12-30T11:42:09.008Z,1031.62
2016-12-30T11:43:18.964Z,1031.62
2016-12-30T11:44:29.303Z,1031.62
2016-12-30T11:45:39.245Z,1031.62
2016-12-30T11:46:49.185Z,1031.61
2016-12-30T11:47:59.552Z,1031.6
2016-12-30T11:49:10.275Z,1031.65
2016-12-30T11:50:20.608Z,1031.64
2016-12-30T11:51:31.360Z,1031.67
2016-12-30T11:52:41.705Z,1031.65
2016-12-30T11:53:52.425Z,1031.63
2016-12-30T11:55:02.761Z,1031.58
2016-12-30T11:56:13.474Z,1031.6
2016-12-30T11:57:24.210Z,1031.56
2016-12-30T11:58:34.575Z,1031.57
2016-12-30T11:59:44.892Z,1031.55
2016-12-30T12:00:55.609Z,1031.56
2016-12-30T12:02:06.091Z,1031.56
2016-12-30T12:03:16.824Z,1031.52
2016-12-30T12:04:27.169Z,1031.52
2016-12-30T12:05:37.499Z,1031.51
2016-12-30T12:06:47.835Z,1031.53
2016-12-30T12:07:58.168Z,1031.51
2016-12-30T12:09:08.888Z,1031.46
2016-12-30T12:10:19.614Z,1031.46
2016-12-30T12:11:29.541Z,1031.41
2016-12-30T12:12:39.915Z,1031.47
2016-12-30T12:13:49.855Z,1031.43
2016-12-30T12:15:00.181Z,1031.42
2016-12-30T12:16:10.520Z,1031.42
2016-12-30T12:17:20.865Z,1031.43
2016-12-30T12:18:31.192Z,1031.38
2016-12-30T12:19:41.931Z,1031.36
2016-12-30T12:20:52.661Z,1031.33
2016-12-30T12:22:03.391Z,1031.33
2016-12-30T12:23:14.119Z,1031.3
2016-12-30T12:24:24.469Z,1031.27
2016-12-30T12:25:34.795Z,1031.28
2016-12-30T12:26:45.560Z,1031.28
2016-12-30T12:27:56.286Z,1031.24
2016-12-30T12:29:06.638Z,1031.28
2016-12-30T12:30:17.407Z,1031.25
2016-12-30T12:31:28.142Z,1031.23
2016-12-30T12:32:38.546Z,1031.2
2016-12-30T12:33:49.278Z,1031.2
2016-12-30T12:35:00.001Z,1031.12
2016-12-30T12:36:10.770Z,1031.11
2016-12-30T12:37:20.696Z,1031.07
2016-12-30T12:38:31.041Z,1031.07
2016-12-30T12:39:41.762Z,1031.08
2016-12-30T12:40:51.714Z,1031.13
2016-12-30T12:42:02.059Z,1031.15
2016-12-30T12:43:12.442Z,1031.16
2016-12-30T12:44:22.772Z,1031.17
2016-12-30T12:45:33.137Z,1031.13
2016-12-30T12:46:43.474Z,1031.12
2016-12-30T12:47:53.812Z,1031.07
2016-12-30T12:49:04.568Z,1031.04
2016-12-30T12:50:15.307Z,1031.03
2016-12-30T12:51:26.036Z,1031.02
2016-12-30T12:52:36.788Z,1030.99
2016-12-30T12:53:47.528Z,1031.02
2016-12-30T12:54:58.267Z,1030.99
2016-12-30T12:56:09.016Z,1031
2016-12-30T12:57:19.751Z,1030.98
2016-12-30T12:58:30.485Z,1030.97
2016-12-30T12:59:40.428Z,1030.97
2016-12-30T13:00:51.185Z,1030.91
2016-12-30T13:02:01.515Z,1030.9
2016-12-30T13:03:11.841Z,1030.87
2016-12-30T13:04:22.606Z,1030.84
2016-12-30T13:05:32.951Z,1030.86
2016-12-30T13:06:43.687Z,1030.81
2016-12-30T13:07:54.036Z,1030.8
2016-12-30T13:09:04.363Z,1030.78
2016-12-30T13:10:15.088Z,1030.77
2016-12-30T13:11:25.415Z,1030.77
2016-12-30T13:12:35.361Z,1030.79
2016-12-30T13:13:45.341Z,1030.77
2016-12-30T13:14:56.066Z,1030.79
2016-12-30T13:16:06.801Z,1030.85
2016-12-30T13:17:17.146Z,1030.88
2016-12-30T13:18:27.882Z,1030.82
2016-12-30T13:19:38.215Z,1030.82
2016-12-30T13:20:48.189Z,1030.83
2016-12-30T13:21:58.516Z,1030.82
2016-12-30T13:23:09.539Z,1030.82
2016-12-30T13:24:19.873Z,1030.81
2016-12-30T13:25:29.821Z,1030.81
2016-12-30T13:26:40.176Z,1030.83
2016-12-30T13:27:50.135Z,1030.88
2016-12-30T13:29:00.877Z,1030.86
2016-12-30T13:30:11.617Z,1030.92
2016-12-30T13:31:22.356Z,1030.93
2016-12-30T13:32:32.305Z,1030.99
2016-12-30T13:33:42.643Z,1030.96
2016-12-30T13:34:53.370Z,1031
2016-12-30T13:36:03.699Z,1030.97
2016-12-30T13:37:14.430Z,1030.97
2016-12-30T13:38:25.171Z,1030.95
2016-12-30T13:39:35.921Z,1030.9
2016-12-30T13:40:46.649Z,1030.89
2016-12-30T13:41:56.982Z,1030.83
2016-12-30T13:43:07.717Z,1030.87
2016-12-30T13:44:18.064Z,1030.83
2016-12-30T13:45:28.419Z,1030.84
2016-12-30T13:46:39.144Z,1030.83
2016-12-30T13:47:49.080Z,1030.84
2016-12-30T13:48:59.410Z,1030.86
2016-12-30T13:50:10.143Z,1030.84
2016-12-30T13:51:20.482Z,1030.89
2016-12-30T13:52:31.205Z,1030.91
2016-12-30T13:53:41.152Z,1030.95
2016-12-30T13:54:51.884Z,1030.94
2016-12-30T13:56:02.626Z,1030.89
2016-12-30T13:57:12.969Z,1030.86
2016-12-30T13:58:23.723Z,1030.85
2016-12-30T13:59:34.463Z,1030.83
2016-12-30T14:00:45.205Z,1030.81
2016-12-30T14:01:55.558Z,1030.8
2016-12-30T14:03:06.329Z,1030.82
2016-12-30T14:04:16.671Z,1030.82
2016-12-30T14:05:27.427Z,1030.82
2016-12-30T14:06:37.458Z,1030.85
2016-12-30T14:07:47.800Z,1030.82
2016-12-30T14:08:57.768Z,1030.75
2016-12-30T14:10:07.731Z,1030.74
2016-12-30T14:11:17.676Z,1030.72
2016-12-30T14:12:28.395Z,1030.7
2016-12-30T14:13:39.126Z,1030.69
2016-12-30T14:14:49.855Z,1030.71